Flight Track Log - Related Links

Times and Time Zones

All times are in EDT time to prevent confusion due to time zone crossing. See the EJM116 flight status page for this flight to view local times or setup timezone preferences in your user account.

Time Position Orientation Groundspeed Altitude Reporting Facility
EDT Latitude Longitude Course Direction KTS MPH feet Rate Location/Type
08:02PM 34.0000 -118.4667 270° West 133 153 1,400  Level Southern California TRACON
08:03PM 34.0000 -118.5333 270° West 195 224 3,500 2,218 Climbing Southern California TRACON
08:04PM 33.9817 -118.5958 251° West 220 253 5,800 1,289 Climbing Los Angeles Center
08:05PM 33.9322 -118.6439 219° Southwest 255 293 6,100 1,113 Climbing Los Angeles Center
08:06PM 33.8539 -118.6644 192° South 268 308 8,100 1,415 Climbing Los Angeles Center
08:07PM 33.7869 -118.6356 160° South 273 314 9,000 1,210 Climbing Los Angeles Center
08:08PM 33.7247 -118.5661 137° Southeast 308 354 10,600 1,790 Climbing Los Angeles Center
08:09PM 33.7008 -118.4364 102° East 352 405 12,700 1,872 Climbing Los Angeles Center
08:10PM 33.6978 -118.3219 92° East 357 411 14,500 1,872 Climbing Los Angeles Center
08:11PM 33.6953 -118.1981 91° East 377 434 16,600 2,323 Climbing Los Angeles Center
08:12PM 33.6911 -118.0428 92° East 391 450 19,300 2,274 Climbing Los Angeles Center
08:13PM 33.6883 -117.9139 91° East 388 447 21,300 1,839 Climbing Los Angeles Center
08:14PM 33.6839 -117.7831 92° East 393 452 23,100 1,645 Climbing Los Angeles Center
08:15PM 33.6806 -117.6467 92° East 407 468 24,700 1,597 Climbing Los Angeles Center
08:16PM 33.6767 -117.5086 92° East 414 476 26,400 1,588 Climbing Los Angeles Center
08:17PM 33.6714 -117.3439 92° East 413 475 28,300 1,664 Climbing Los Angeles Center
08:18PM 33.6650 -117.1764 93° East 419 482 30,200 1,680 Climbing Los Angeles Center
08:19PM 33.6600 -117.0383 92° East 419 482 31,800 1,258 Climbing Los Angeles Center
08:20PM 33.6547 -116.9017 93° East 414 476 32,800 581 Climbing Los Angeles Center
08:21PM 33.6511 -116.7575 92° East 422 486 33,000 97 Climbing Los Angeles Center
08:22PM 33.6464 -116.6014 92° East 454 522 33,000  Level Los Angeles Center
08:23PM 33.6394 -116.4439 93° East 467 537 33,000  Level Los Angeles Center
08:25PM 33.6325 -116.2553 92° East 470 541 33,000  Level Los Angeles Center
08:26PM 33.6269 -116.0972 92° East 472 543 33,000  Level Los Angeles Center
08:27PM 33.6239 -115.9408 91° East 470 541 33,000 -49 Level Los Angeles Center
08:28PM 33.6211 -115.7878 91° East 462 532 32,900  Descending Los Angeles Center
08:29PM 33.6183 -115.6353 91° East 458 527 33,000 48 Climbing Los Angeles Center
08:30PM 33.6125 -115.4825 93° East 458 527 33,000  Level Los Angeles Center
08:31PM 33.6100 -115.3306 91° East 457 526 33,000  Level Los Angeles Center
08:32PM 33.6056 -115.1467 92° East 463 533 33,000  Level Los Angeles Center
08:33PM 33.5978 -114.9956 93° East 457 526 33,000  Level Los Angeles Center
08:34PM 33.5742 -114.8453 101° East 461 531 33,000  Level Los Angeles Center
08:35PM 33.5583 -114.6950 97° East 461 531 33,000 -532 Level Los Angeles Center
08:36PM 33.5642 -114.5386 87° East 474 545 31,900 -1,790 Descending Los Angeles Center
08:37PM 33.5706 -114.3847 87° East 463 533 29,300 -2,453 Descending Los Angeles Center
08:38PM 33.5794 -114.1933 87° East 422 486 26,300 -1,883 Descending Albuquerque Center
08:39PM 33.5831 -114.0553 88° East 415 478 25,000 -1,073 Descending Albuquerque Center
08:40PM 33.5875 -113.9169 88° East 415 478 24,100 -1,707 Descending Albuquerque Center
08:41PM 33.5931 -113.7756 87° East 423 487 21,500 -2,293 Descending Albuquerque Center
08:42PM 33.5956 -113.6394 89° East 413 475 19,400 -2,098 Descending Albuquerque Center
08:43PM 33.5997 -113.5056 88° East 406 467 17,200 -2,103 Descending Albuquerque Center
08:45PM 33.6053 -113.2583 88° East 374 430 13,300 -2,060 Descending Los Angeles Center
08:46PM 33.6081 -113.1497 88° East 359 413 11,500 -1,917 Descending Albuquerque Center
08:46PM 33.6092 -113.1156 88° East 360 414 11,000 -590 Descending Albuquerque Center
08:47PM 33.6111 -113.0319 88° East 357 411 10,900 -97 Descending Albuquerque Center
08:47PM 33.6128 -112.9975 87° East 356 410 10,900  Level Albuquerque Center
08:48PM 33.6147 -112.9164 88° East 352 405 10,900  Level Albuquerque Center
08:48PM 33.6144 -112.8808 91° East 352 405 10,900 -600 Level Albuquerque Center
08:49PM 33.6156 -112.7989 89° East 319 367 10,300 -774 Descending Albuquerque Center
08:49PM 33.6156 -112.7736 90° East 332 382 10,100 -1,279 Descending Albuquerque Center
08:50PM 33.6161 -112.7044 89° East 290 334 9,000 -1,475 Descending Albuquerque Center
08:50PM 33.6169 -112.6803 88° East 293 337 8,600 -1,537 Descending Albuquerque Center
08:51PM 33.6233 -112.5728 86° East 285 328 6,900 -1,317 Descending Albuquerque Center
08:53PM 33.6517 -112.4817 69° East 292 336 5,900 -488 Descending Albuquerque Center
08:54PM 33.6644 -112.3928 80° East 278 320 5,900 -390 Level Albuquerque Center
08:55PM 33.6561 -112.3000 96° East 280 322 5,100 -488 Descending Albuquerque Center
08:56PM 33.6489 -112.2131 96° East 265 305 4,900 -393 Descending Albuquerque Center
08:57PM 33.6425 -112.1381 96° East 231 266 4,300 -488 Descending Albuquerque Center
08:58PM 33.6356 -112.0592 96° East 238 274 3,900 -629 Descending Albuquerque Center
08:59PM 33.6328 -111.9700 92° East 226 260 3,000 -537 Descending Albuquerque Center
09:00PM 33.6617 -111.9172 57° Northeast 195 224 2,800 -492 Descending Albuquerque Center
09:01PM 33.6433 -111.8881 127° Southeast 172 198 2,000 -683 Descending Albuquerque Center
09:02PM 33.6231 -111.9108 223° Southwest 125 144 1,400 -581 Descending Albuquerque Center

Login

Don't have an account? Register now (free) for customized features, flight alerts, and more!